ENBM weather

Bømoen Airport
Tjukkebygdi, Hordaland, Norway

Public forecast

Using degrees Celsius for public forecast. Weather courtesy of forecast.io.

Closest aviation weather report (METAR) to Bømoen Airport

Closest report is Sogndal Airport, 36.2 nm (67.0 km) NNE. Retrieved 2020/03/31 12:20 UTC (16 minutes ago):

ENSG 311220Z 25013KT 9999 -SHRA FEW015 BKN031 04/M01 Q1018 RMK WIND 3806FT 28039KT

Closest aviation forecast (TAF) to Bømoen Airport

Closest forecast is Bergen Airport Flesland, 43.3 nm (80.1 km) WSW. Retrieved 2020/03/31 12:58 UTC (0 seconds ago):

TAF ENBR 311100Z 3112/0112 29008KT 9999 -SHRA FEW008 SCT012 BKN020 TEMPO 3112/3124 SHRA BKN014 TEMPO 0100/0112 4000 RADZ BKN008